Weaver, Alabama
Current Conditions -  °F | °C
As of 9:53 AM on Sunday 23 Nov 2014 (Local Time) from KANB Reporting Station
Haze Haze  
Wind Chill: 57°   Ceiling: 600
Heat Index: 57°   Visibility: 4mi
Dew Point: 55°   Wind: 7mph
Humidity: 93%   Direction: 50°NE
Pressure: 29.87"   Gusts: NA
Location:  33.75°N, 85.81°W
Report Text: KANB 231553Z AUTO 05006KT 4SM BR OVC006 14/13 A2987 RMK AO2 PRESFR SLP116 T01390128 $
Loading
Personal Weather Stations






























Interactive Weather Map New forecast layout! Learn more

10-Day Weather Forecast

Advertisements
Track Severe Weather on mobile